Aérodrome :
LOGIN :

S'inscrire | Disclaimer

   EN    FR    IT 

 










Légende :    VFR   VFR Marginal   IFR   IFR Intensif   IFR Très Intensif
Visi : 
Plafond : 
>= 8 km
>= 3000ft
5 à 8 km
1000 à 3000 ft
1500m à 5 km
500 à 1000 ft
800 à 1500m
200 à 500 ft
< 800m
< 200 ft
Symboles :   Orages  Brouillard  Fortes neiges  Fortes précipitations  Vent > 20 kt
SIGMETs :   Divers  Orages  Givrage  Turbulence  Onde Orograph.  Cendres Volcan.







- Altitude de l'aérodrome : 1411 ft
- Code IATA : GVA


LSGG - Genève Cointrin

DERNIER METAR :
  • 141250Z VRB03KT 9999 FEW014 SCT025 BKN030 06/04 Q1006 NOSIG

METARs EXPIRÉS :
  • 141220Z 28005KT 9999 -RA FEW017 BKN027 06/04 Q1007 NOSIG
  • 141150Z 27008KT 9000 -RA FEW020 BKN025 BKN035 06/04 Q1008 NOSIG
  • 141120Z 26006KT 230V300 9000 -RA FEW012 BKN024 BKN040 06/04 Q1009 RERA NOSIG
  • 141050Z 26008KT 6000 RA FEW011 BKN023 BKN030 06/04 Q1009 NOSIG
  • 141020Z 25009KT 8000 -RA FEW012 BKN025 BKN035 06/04 Q1009 RERA NOSIG

TAF TAF LSGG
Valide du 14 à 12h jusqu'au 15 à 18h UTC


141125Z 1412/1518 25012KT 9999 -RA FEW010 BKN030 TX07/1414Z TN04/1505Z TX08/1514Z
TEMPO 1412/1501 4500 SHRA SCT020TCU
PROB40
TEMPO 1421/1501 25025G40KT 2900 TSRASN SCT020CB
ATIS : +41 22 417 40 81
Pas de NOTAMs connus pour ce terrain.



MET'MAP, la Météo Aéronautique d'un coup d'oeil ! - Copyright ORBIFLY Décembre 2007 - Disclaimer

ORBIFLY MET'MAP TEAM :

Programmation & Développement : Alexandra Zaïnal
Conception & Développement : Baudouin d'Aumeries
Co-Programmation & Développement : Marc-Olivier Méhu
Soutien technique & logistique : Manuel Goepfert

Contact : metmap@orbifly.com




SOURCES & CREDITS :

   NOAA